sensor_id;sensor_type;location;lat;lon;timestamp;pressure;altitude;pressure_sealevel;temperature
11792;BMP180;5953;52.372;9.918;2024-02-26T00:01:41;99486.00;;;9.40
11792;BMP180;5953;52.372;9.918;2024-02-26T00:04:10;99492.00;;;9.40
11792;BMP180;5953;52.372;9.918;2024-02-26T00:06:39;99492.00;;;9.40
11792;BMP180;5953;52.372;9.918;2024-02-26T00:09:08;99493.00;;;9.40
11792;BMP180;5953;52.372;9.918;2024-02-26T00:11:36;99468.00;;;9.30
11792;BMP180;5953;52.372;9.918;2024-02-26T00:14:06;99488.00;;;9.30
11792;BMP180;5953;52.372;9.918;2024-02-26T00:16:33;99486.00;;;9.20
11792;BMP180;5953;52.372;9.918;2024-02-26T00:19:01;99451.00;;;9.10
11792;BMP180;5953;52.372;9.918;2024-02-26T00:21:30;99483.00;;;9.00
11792;BMP180;5953;52.372;9.918;2024-02-26T00:23:58;99480.00;;;9.00
11792;BMP180;5953;52.372;9.918;2024-02-26T00:26:26;99416.00;;;9.00
11792;BMP180;5953;52.372;9.918;2024-02-26T00:28:54;99464.00;;;8.90
11792;BMP180;5953;52.372;9.918;2024-02-26T00:31:23;99472.00;;;8.90
11792;BMP180;5953;52.372;9.918;2024-02-26T00:33:52;99429.00;;;8.80
11792;BMP180;5953;52.372;9.918;2024-02-26T00:36:21;99461.00;;;8.80
11792;BMP180;5953;52.372;9.918;2024-02-26T00:38:49;99407.00;;;8.80
11792;BMP180;5953;52.372;9.918;2024-02-26T00:41:18;99466.00;;;8.80
11792;BMP180;5953;52.372;9.918;2024-02-26T00:43:46;99467.00;;;8.80
11792;BMP180;5953;52.372;9.918;2024-02-26T00:46:14;99468.00;;;8.80
11792;BMP180;5953;52.372;9.918;2024-02-26T00:48:43;99461.00;;;8.70
11792;BMP180;5953;52.372;9.918;2024-02-26T00:51:12;99464.00;;;8.60
11792;BMP180;5953;52.372;9.918;2024-02-26T00:53:40;99421.00;;;8.30
11792;BMP180;5953;52.372;9.918;2024-02-26T00:56:08;99420.00;;;8.50
11792;BMP180;5953;52.372;9.918;2024-02-26T00:58:36;99429.00;;;8.50
11792;BMP180;5953;52.372;9.918;2024-02-26T01:01:04;99477.00;;;8.40
11792;BMP180;5953;52.372;9.918;2024-02-26T01:03:32;99472.00;;;8.40
11792;BMP180;5953;52.372;9.918;2024-02-26T01:06:02;99456.00;;;8.40
11792;BMP180;5953;52.372;9.918;2024-02-26T01:08:30;99471.00;;;8.40
11792;BMP180;5953;52.372;9.918;2024-02-26T01:10:58;99433.00;;;8.40
11792;BMP180;5953;52.372;9.918;2024-02-26T01:13:26;99467.00;;;8.40
11792;BMP180;5953;52.372;9.918;2024-02-26T01:15:54;99416.00;;;8.20
11792;BMP180;5953;52.372;9.918;2024-02-26T01:18:22;99480.00;;;8.20
11792;BMP180;5953;52.372;9.918;2024-02-26T01:20:50;99465.00;;;8.40
11792;BMP180;5953;52.372;9.918;2024-02-26T01:23:22;99483.00;;;8.40
11792;BMP180;5953;52.372;9.918;2024-02-26T01:25:50;99472.00;;;8.30
11792;BMP180;5953;52.372;9.918;2024-02-26T01:28:19;99460.00;;;8.40
11792;BMP180;5953;52.372;9.918;2024-02-26T01:30:47;99483.00;;;8.40
11792;BMP180;5953;52.372;9.918;2024-02-26T01:33:15;99437.00;;;8.40
11792;BMP180;5953;52.372;9.918;2024-02-26T01:35:43;99481.00;;;8.40
11792;BMP180;5953;52.372;9.918;2024-02-26T01:38:11;99488.00;;;8.30
11792;BMP180;5953;52.372;9.918;2024-02-26T01:40:40;99480.00;;;8.30
11792;BMP180;5953;52.372;9.918;2024-02-26T01:43:08;99466.00;;;8.40
11792;BMP180;5953;52.372;9.918;2024-02-26T01:45:36;99452.00;;;8.40
11792;BMP180;5953;52.372;9.918;2024-02-26T01:48:05;99476.00;;;8.30
11792;BMP180;5953;52.372;9.918;2024-02-26T01:50:33;99464.00;;;8.40
11792;BMP180;5953;52.372;9.918;2024-02-26T01:53:01;99448.00;;;8.20
11792;BMP180;5953;52.372;9.918;2024-02-26T01:55:29;99463.00;;;8.30
11792;BMP180;5953;52.372;9.918;2024-02-26T01:57:59;99472.00;;;8.30
11792;BMP180;5953;52.372;9.918;2024-02-26T02:00:27;99481.00;;;8.30
11792;BMP180;5953;52.372;9.918;2024-02-26T02:02:56;99466.00;;;8.40
11792;BMP180;5953;52.372;9.918;2024-02-26T02:05:24;99488.00;;;8.50
11792;BMP180;5953;52.372;9.918;2024-02-26T02:07:53;99418.00;;;8.40
11792;BMP180;5953;52.372;9.918;2024-02-26T02:10:21;99467.00;;;8.40
11792;BMP180;5953;52.372;9.918;2024-02-26T02:12:52;99484.00;;;8.40
11792;BMP180;5953;52.372;9.918;2024-02-26T02:15:21;99487.00;;;8.40
11792;BMP180;5953;52.372;9.918;2024-02-26T02:17:50;99475.00;;;8.40
11792;BMP180;5953;52.372;9.918;2024-02-26T02:20:18;99474.00;;;8.40
11792;BMP180;5953;52.372;9.918;2024-02-26T02:22:48;99494.00;;;8.40
11792;BMP180;5953;52.372;9.918;2024-02-26T02:25:16;99447.00;;;8.40
11792;BMP180;5953;52.372;9.918;2024-02-26T02:27:44;99490.00;;;8.30
11792;BMP180;5953;52.372;9.918;2024-02-26T02:30:13;99484.00;;;8.40
11792;BMP180;5953;52.372;9.918;2024-02-26T02:32:42;99472.00;;;8.40
11792;BMP180;5953;52.372;9.918;2024-02-26T02:35:10;99450.00;;;8.40
11792;BMP180;5953;52.372;9.918;2024-02-26T02:37:38;99480.00;;;8.40
11792;BMP180;5953;52.372;9.918;2024-02-26T02:40:08;99487.00;;;8.40
11792;BMP180;5953;52.372;9.918;2024-02-26T02:42:36;99458.00;;;8.40
11792;BMP180;5953;52.372;9.918;2024-02-26T02:45:05;99471.00;;;8.40
11792;BMP180;5953;52.372;9.918;2024-02-26T02:47:35;99472.00;;;8.30
11792;BMP180;5953;52.372;9.918;2024-02-26T02:50:04;99464.00;;;8.20
11792;BMP180;5953;52.372;9.918;2024-02-26T02:52:32;99496.00;;;8.30
11792;BMP180;5953;52.372;9.918;2024-02-26T02:55:00;99469.00;;;8.30
11792;BMP180;5953;52.372;9.918;2024-02-26T02:57:30;99465.00;;;8.30
11792;BMP180;5953;52.372;9.918;2024-02-26T02:59:59;99459.00;;;8.30
11792;BMP180;5953;52.372;9.918;2024-02-26T03:02:27;99437.00;;;8.30
11792;BMP180;5953;52.372;9.918;2024-02-26T03:04:56;99501.00;;;8.30
11792;BMP180;5953;52.372;9.918;2024-02-26T03:07:24;99503.00;;;8.40
11792;BMP180;5953;52.372;9.918;2024-02-26T03:09:52;99482.00;;;8.40
11792;BMP180;5953;52.372;9.918;2024-02-26T03:12:20;99499.00;;;8.40
11792;BMP180;5953;52.372;9.918;2024-02-26T03:14:49;99487.00;;;8.40
11792;BMP180;5953;52.372;9.918;2024-02-26T03:17:18;99478.00;;;8.30
11792;BMP180;5953;52.372;9.918;2024-02-26T03:19:46;99483.00;;;8.10
11792;BMP180;5953;52.372;9.918;2024-02-26T03:22:19;99443.00;;;8.30
11792;BMP180;5953;52.372;9.918;2024-02-26T03:24:48;99487.00;;;8.30
11792;BMP180;5953;52.372;9.918;2024-02-26T03:27:16;99445.00;;;8.30
11792;BMP180;5953;52.372;9.918;2024-02-26T03:29:44;99501.00;;;8.30
11792;BMP180;5953;52.372;9.918;2024-02-26T03:32:13;99500.00;;;8.30
11792;BMP180;5953;52.372;9.918;2024-02-26T03:34:41;99497.00;;;8.40
11792;BMP180;5953;52.372;9.918;2024-02-26T03:37:09;99503.00;;;8.40
11792;BMP180;5953;52.372;9.918;2024-02-26T03:39:37;99505.00;;;8.30
11792;BMP180;5953;52.372;9.918;2024-02-26T03:42:06;99497.00;;;8.20
11792;BMP180;5953;52.372;9.918;2024-02-26T03:44:34;99493.00;;;8.10
11792;BMP180;5953;52.372;9.918;2024-02-26T03:47:02;99499.00;;;8.00
11792;BMP180;5953;52.372;9.918;2024-02-26T03:49:32;99500.00;;;8.10
11792;BMP180;5953;52.372;9.918;2024-02-26T03:52:00;99454.00;;;8.10
11792;BMP180;5953;52.372;9.918;2024-02-26T03:54:28;99459.00;;;7.90
11792;BMP180;5953;52.372;9.918;2024-02-26T03:56:57;99416.00;;;7.90
11792;BMP180;5953;52.372;9.918;2024-02-26T03:59:25;99504.00;;;8.00
11792;BMP180;5953;52.372;9.918;2024-02-26T04:01:53;99489.00;;;7.90
11792;BMP180;5953;52.372;9.918;2024-02-26T04:04:21;99470.00;;;7.80
11792;BMP180;5953;52.372;9.918;2024-02-26T04:06:50;99458.00;;;7.80
11792;BMP180;5953;52.372;9.918;2024-02-26T04:09:21;99450.00;;;7.90
11792;BMP180;5953;52.372;9.918;2024-02-26T04:11:49;99497.00;;;7.90
11792;BMP180;5953;52.372;9.918;2024-02-26T04:14:17;99502.00;;;7.90
11792;BMP180;5953;52.372;9.918;2024-02-26T04:16:45;99434.00;;;7.80
11792;BMP180;5953;52.372;9.918;2024-02-26T04:19:14;99517.00;;;7.90
11792;BMP180;5953;52.372;9.918;2024-02-26T04:21:43;99511.00;;;7.90
11792;BMP180;5953;52.372;9.918;2024-02-26T04:24:12;99510.00;;;7.90
11792;BMP180;5953;52.372;9.918;2024-02-26T04:26:40;99465.00;;;7.80
11792;BMP180;5953;52.372;9.918;2024-02-26T04:29:08;99436.00;;;7.90
11792;BMP180;5953;52.372;9.918;2024-02-26T04:31:37;99435.00;;;7.80
11792;BMP180;5953;52.372;9.918;2024-02-26T04:34:06;99499.00;;;7.90
11792;BMP180;5953;52.372;9.918;2024-02-26T04:36:36;99518.00;;;7.90
11792;BMP180;5953;52.372;9.918;2024-02-26T04:39:04;99485.00;;;7.80
11792;BMP180;5953;52.372;9.918;2024-02-26T04:41:38;99515.00;;;7.80
11792;BMP180;5953;52.372;9.918;2024-02-26T04:44:06;99460.00;;;7.80
11792;BMP180;5953;52.372;9.918;2024-02-26T04:46:34;99525.00;;;7.80
11792;BMP180;5953;52.372;9.918;2024-02-26T04:49:02;99522.00;;;7.80
11792;BMP180;5953;52.372;9.918;2024-02-26T04:51:30;99492.00;;;7.80
11792;BMP180;5953;52.372;9.918;2024-02-26T04:53:58;99445.00;;;7.80
11792;BMP180;5953;52.372;9.918;2024-02-26T04:56:27;99538.00;;;7.70
11792;BMP180;5953;52.372;9.918;2024-02-26T04:58:57;99477.00;;;7.80
11792;BMP180;5953;52.372;9.918;2024-02-26T05:01:25;99527.00;;;7.60
11792;BMP180;5953;52.372;9.918;2024-02-26T05:03:53;99536.00;;;7.70
11792;BMP180;5953;52.372;9.918;2024-02-26T05:06:21;99540.00;;;7.40
11792;BMP180;5953;52.372;9.918;2024-02-26T05:08:49;99532.00;;;7.50
11792;BMP180;5953;52.372;9.918;2024-02-26T05:11:17;99509.00;;;7.70
11792;BMP180;5953;52.372;9.918;2024-02-26T05:13:47;99588.00;;;7.70
11792;BMP180;5953;52.372;9.918;2024-02-26T05:16:16;99550.00;;;7.80
11792;BMP180;5953;52.372;9.918;2024-02-26T05:18:47;99553.00;;;7.70
11792;BMP180;5953;52.372;9.918;2024-02-26T05:21:15;99540.00;;;8.00
11792;BMP180;5953;52.372;9.918;2024-02-26T05:23:43;99507.00;;;8.00
11792;BMP180;5953;52.372;9.918;2024-02-26T05:26:19;99579.00;;;8.10
11792;BMP180;5953;52.372;9.918;2024-02-26T05:28:49;99560.00;;;8.20
11792;BMP180;5953;52.372;9.918;2024-02-26T05:31:19;99567.00;;;8.20
11792;BMP180;5953;52.372;9.918;2024-02-26T05:33:47;99556.00;;;8.10
11792;BMP180;5953;52.372;9.918;2024-02-26T05:36:19;99549.00;;;8.20
11792;BMP180;5953;52.372;9.918;2024-02-26T05:38:49;99572.00;;;8.10
11792;BMP180;5953;52.372;9.918;2024-02-26T05:41:17;99572.00;;;8.10
11792;BMP180;5953;52.372;9.918;2024-02-26T05:43:49;99590.00;;;8.10
11792;BMP180;5953;52.372;9.918;2024-02-26T05:46:19;99560.00;;;8.10
11792;BMP180;5953;52.372;9.918;2024-02-26T05:48:49;99588.00;;;8.00
11792;BMP180;5953;52.372;9.918;2024-02-26T05:51:17;99530.00;;;8.00
11792;BMP180;5953;52.372;9.918;2024-02-26T05:53:46;99547.00;;;8.10
11792;BMP180;5953;52.372;9.918;2024-02-26T05:56:21;99532.00;;;8.00
11792;BMP180;5953;52.372;9.918;2024-02-26T05:58:49;99552.00;;;7.90
11792;BMP180;5953;52.372;9.918;2024-02-26T06:01:20;99590.00;;;7.90
11792;BMP180;5953;52.372;9.918;2024-02-26T06:03:48;99529.00;;;7.80
11792;BMP180;5953;52.372;9.918;2024-02-26T06:06:16;99561.00;;;8.00
11792;BMP180;5953;52.372;9.918;2024-02-26T06:08:47;99540.00;;;8.00
11792;BMP180;5953;52.372;9.918;2024-02-26T06:11:18;99538.00;;;7.90
11792;BMP180;5953;52.372;9.918;2024-02-26T06:13:46;99587.00;;;7.80
11792;BMP180;5953;52.372;9.918;2024-02-26T06:16:14;99592.00;;;7.90
11792;BMP180;5953;52.372;9.918;2024-02-26T06:18:43;99594.00;;;8.00
11792;BMP180;5953;52.372;9.918;2024-02-26T06:21:11;99590.00;;;7.90
11792;BMP180;5953;52.372;9.918;2024-02-26T06:23:39;99595.00;;;8.00
11792;BMP180;5953;52.372;9.918;2024-02-26T06:26:07;99604.00;;;7.90
11792;BMP180;5953;52.372;9.918;2024-02-26T06:28:35;99603.00;;;7.90
11792;BMP180;5953;52.372;9.918;2024-02-26T06:31:04;99597.00;;;7.90
11792;BMP180;5953;52.372;9.918;2024-02-26T06:33:32;99602.00;;;8.00
11792;BMP180;5953;52.372;9.918;2024-02-26T06:36:01;99608.00;;;7.90
11792;BMP180;5953;52.372;9.918;2024-02-26T06:38:29;99609.00;;;7.90
11792;BMP180;5953;52.372;9.918;2024-02-26T06:40:57;99611.00;;;7.80
11792;BMP180;5953;52.372;9.918;2024-02-26T06:43:24;99623.00;;;7.80
11792;BMP180;5953;52.372;9.918;2024-02-26T06:45:52;99620.00;;;7.70
11792;BMP180;5953;52.372;9.918;2024-02-26T06:48:20;99626.00;;;7.60
11792;BMP180;5953;52.372;9.918;2024-02-26T06:50:48;99629.00;;;8.00
11792;BMP180;5953;52.372;9.918;2024-02-26T06:53:17;99635.00;;;8.20
11792;BMP180;5953;52.372;9.918;2024-02-26T06:55:45;99649.00;;;8.30
11792;BMP180;5953;52.372;9.918;2024-02-26T06:58:12;99633.00;;;8.30
11792;BMP180;5953;52.372;9.918;2024-02-26T07:00:40;99653.00;;;8.30
11792;BMP180;5953;52.372;9.918;2024-02-26T07:03:08;99647.00;;;8.50
11792;BMP180;5953;52.372;9.918;2024-02-26T07:05:37;99654.00;;;8.40
11792;BMP180;5953;52.372;9.918;2024-02-26T07:08:06;99655.00;;;8.50
11792;BMP180;5953;52.372;9.918;2024-02-26T07:10:35;99652.00;;;8.60
11792;BMP180;5953;52.372;9.918;2024-02-26T07:13:03;99657.00;;;8.70
11792;BMP180;5953;52.372;9.918;2024-02-26T07:15:31;99670.00;;;8.70
11792;BMP180;5953;52.372;9.918;2024-02-26T07:17:59;99677.00;;;8.80
11792;BMP180;5953;52.372;9.918;2024-02-26T07:20:30;99670.00;;;8.80
11792;BMP180;5953;52.372;9.918;2024-02-26T07:22:58;99682.00;;;8.90
11792;BMP180;5953;52.372;9.918;2024-02-26T07:25:26;99674.00;;;8.90
11792;BMP180;5953;52.372;9.918;2024-02-26T07:27:55;99681.00;;;8.70
11792;BMP180;5953;52.372;9.918;2024-02-26T07:30:22;99682.00;;;8.50
11792;BMP180;5953;52.372;9.918;2024-02-26T07:32:51;99679.00;;;8.50
11792;BMP180;5953;52.372;9.918;2024-02-26T07:35:19;99687.00;;;8.40
11792;BMP180;5953;52.372;9.918;2024-02-26T07:37:48;99680.00;;;8.40
11792;BMP180;5953;52.372;9.918;2024-02-26T07:40:16;99688.00;;;8.30
11792;BMP180;5953;52.372;9.918;2024-02-26T07:42:43;99683.00;;;8.30
11792;BMP180;5953;52.372;9.918;2024-02-26T07:45:13;99686.00;;;8.20
11792;BMP180;5953;52.372;9.918;2024-02-26T07:47:42;99684.00;;;8.30
11792;BMP180;5953;52.372;9.918;2024-02-26T07:50:10;99687.00;;;8.20
11792;BMP180;5953;52.372;9.918;2024-02-26T07:52:39;99677.00;;;8.30
11792;BMP180;5953;52.372;9.918;2024-02-26T07:55:10;99673.00;;;8.30
11792;BMP180;5953;52.372;9.918;2024-02-26T07:57:41;99683.00;;;8.30
11792;BMP180;5953;52.372;9.918;2024-02-26T08:00:10;99687.00;;;8.40
11792;BMP180;5953;52.372;9.918;2024-02-26T08:02:40;99688.00;;;8.40
11792;BMP180;5953;52.372;9.918;2024-02-26T08:05:08;99684.00;;;8.40
11792;BMP180;5953;52.372;9.918;2024-02-26T08:07:35;99690.00;;;8.30
11792;BMP180;5953;52.372;9.918;2024-02-26T08:10:07;99690.00;;;8.50
11792;BMP180;5953;52.372;9.918;2024-02-26T08:12:35;99675.00;;;8.40
11792;BMP180;5953;52.372;9.918;2024-02-26T08:15:03;99698.00;;;8.30
11792;BMP180;5953;52.372;9.918;2024-02-26T08:17:31;99695.00;;;8.30
11792;BMP180;5953;52.372;9.918;2024-02-26T08:20:01;99694.00;;;8.30
11792;BMP180;5953;52.372;9.918;2024-02-26T08:22:29;99701.00;;;8.30
11792;BMP180;5953;52.372;9.918;2024-02-26T08:24:57;99693.00;;;8.50
11792;BMP180;5953;52.372;9.918;2024-02-26T08:27:25;99693.00;;;8.60
11792;BMP180;5953;52.372;9.918;2024-02-26T08:29:52;99692.00;;;8.70
11792;BMP180;5953;52.372;9.918;2024-02-26T08:32:20;99687.00;;;8.70
11792;BMP180;5953;52.372;9.918;2024-02-26T08:34:48;99690.00;;;8.70
11792;BMP180;5953;52.372;9.918;2024-02-26T08:37:17;99689.00;;;8.80
11792;BMP180;5953;52.372;9.918;2024-02-26T08:39:45;99685.00;;;8.90
11792;BMP180;5953;52.372;9.918;2024-02-26T08:42:13;99688.00;;;8.90
11792;BMP180;5953;52.372;9.918;2024-02-26T08:44:41;99681.00;;;9.00
11792;BMP180;5953;52.372;9.918;2024-02-26T08:47:09;99694.00;;;9.10
11792;BMP180;5953;52.372;9.918;2024-02-26T08:49:36;99690.00;;;9.00
11792;BMP180;5953;52.372;9.918;2024-02-26T08:52:05;99697.00;;;9.00
11792;BMP180;5953;52.372;9.918;2024-02-26T08:54:34;99692.00;;;9.00
11792;BMP180;5953;52.372;9.918;2024-02-26T08:57:03;99697.00;;;9.10
11792;BMP180;5953;52.372;9.918;2024-02-26T08:59:32;99704.00;;;9.20
11792;BMP180;5953;52.372;9.918;2024-02-26T09:02:00;99698.00;;;9.40
11792;BMP180;5953;52.372;9.918;2024-02-26T09:04:27;99706.00;;;9.20
11792;BMP180;5953;52.372;9.918;2024-02-26T09:06:55;99711.00;;;9.30
11792;BMP180;5953;52.372;9.918;2024-02-26T09:09:23;99706.00;;;9.40
11792;BMP180;5953;52.372;9.918;2024-02-26T09:11:54;99702.00;;;9.30
11792;BMP180;5953;52.372;9.918;2024-02-26T09:14:22;99710.00;;;9.30
11792;BMP180;5953;52.372;9.918;2024-02-26T09:16:53;99710.00;;;9.40
11792;BMP180;5953;52.372;9.918;2024-02-26T09:19:21;99707.00;;;9.40
11792;BMP180;5953;52.372;9.918;2024-02-26T09:21:49;99706.00;;;9.60
11792;BMP180;5953;52.372;9.918;2024-02-26T09:24:17;99682.00;;;9.50
11792;BMP180;5953;52.372;9.918;2024-02-26T09:26:45;99708.00;;;9.50
11792;BMP180;5953;52.372;9.918;2024-02-26T09:29:14;99703.00;;;9.60
11792;BMP180;5953;52.372;9.918;2024-02-26T09:31:42;99713.00;;;9.60
11792;BMP180;5953;52.372;9.918;2024-02-26T09:34:13;99711.00;;;9.70
11792;BMP180;5953;52.372;9.918;2024-02-26T09:36:41;99703.00;;;9.70
11792;BMP180;5953;52.372;9.918;2024-02-26T09:39:09;99708.00;;;9.80
11792;BMP180;5953;52.372;9.918;2024-02-26T09:41:38;99706.00;;;9.80
11792;BMP180;5953;52.372;9.918;2024-02-26T09:44:06;99710.00;;;9.90
11792;BMP180;5953;52.372;9.918;2024-02-26T09:46:37;99714.00;;;9.90
11792;BMP180;5953;52.372;9.918;2024-02-26T09:49:05;99727.00;;;10.00
11792;BMP180;5953;52.372;9.918;2024-02-26T09:51:34;99736.00;;;10.00
11792;BMP180;5953;52.372;9.918;2024-02-26T09:54:02;99726.00;;;9.80
11792;BMP180;5953;52.372;9.918;2024-02-26T09:56:35;99726.00;;;9.90
11792;BMP180;5953;52.372;9.918;2024-02-26T09:59:15;99735.00;;;9.80
11792;BMP180;5953;52.372;9.918;2024-02-26T10:01:46;99729.00;;;9.90
11792;BMP180;5953;52.372;9.918;2024-02-26T10:04:15;99732.00;;;9.60
11792;BMP180;5953;52.372;9.918;2024-02-26T10:06:45;99730.00;;;10.00
11792;BMP180;5953;52.372;9.918;2024-02-26T10:09:13;99732.00;;;9.90
11792;BMP180;5953;52.372;9.918;2024-02-26T10:11:43;99740.00;;;9.90
11792;BMP180;5953;52.372;9.918;2024-02-26T10:14:11;99749.00;;;10.10
11792;BMP180;5953;52.372;9.918;2024-02-26T10:16:39;99746.00;;;10.10
11792;BMP180;5953;52.372;9.918;2024-02-26T10:19:24;99752.00;;;10.10
11792;BMP180;5953;52.372;9.918;2024-02-26T10:21:56;99759.00;;;10.10
11792;BMP180;5953;52.372;9.918;2024-02-26T10:24:24;99753.00;;;10.30
11792;BMP180;5953;52.372;9.918;2024-02-26T10:26:52;99753.00;;;10.50
11792;BMP180;5953;52.372;9.918;2024-02-26T10:29:20;99757.00;;;10.50
11792;BMP180;5953;52.372;9.918;2024-02-26T10:31:50;99755.00;;;10.60
11792;BMP180;5953;52.372;9.918;2024-02-26T10:34:19;99765.00;;;10.60
11792;BMP180;5953;52.372;9.918;2024-02-26T10:36:49;99761.00;;;10.70
11792;BMP180;5953;52.372;9.918;2024-02-26T10:39:20;99765.00;;;10.80
11792;BMP180;5953;52.372;9.918;2024-02-26T10:41:50;99776.00;;;11.00
11792;BMP180;5953;52.372;9.918;2024-02-26T10:44:17;99773.00;;;11.10
11792;BMP180;5953;52.372;9.918;2024-02-26T10:46:47;99782.00;;;11.10
11792;BMP180;5953;52.372;9.918;2024-02-26T10:49:16;99776.00;;;11.30
11792;BMP180;5953;52.372;9.918;2024-02-26T10:51:55;99780.00;;;11.20
11792;BMP180;5953;52.372;9.918;2024-02-26T10:54:26;99781.00;;;11.30
11792;BMP180;5953;52.372;9.918;2024-02-26T10:56:56;99787.00;;;11.40
11792;BMP180;5953;52.372;9.918;2024-02-26T10:59:24;99788.00;;;11.40
11792;BMP180;5953;52.372;9.918;2024-02-26T11:01:54;99778.00;;;11.30
11792;BMP180;5953;52.372;9.918;2024-02-26T11:04:22;99789.00;;;11.30
11792;BMP180;5953;52.372;9.918;2024-02-26T11:06:54;99788.00;;;11.10
11792;BMP180;5953;52.372;9.918;2024-02-26T11:09:24;99802.00;;;11.10
11792;BMP180;5953;52.372;9.918;2024-02-26T11:11:53;99791.00;;;11.10
11792;BMP180;5953;52.372;9.918;2024-02-26T11:14:22;99780.00;;;11.40
11792;BMP180;5953;52.372;9.918;2024-02-26T11:16:53;99789.00;;;11.40
11792;BMP180;5953;52.372;9.918;2024-02-26T11:19:22;99787.00;;;11.50
11792;BMP180;5953;52.372;9.918;2024-02-26T11:21:51;99787.00;;;11.60
11792;BMP180;5953;52.372;9.918;2024-02-26T11:24:20;99781.00;;;11.60
11792;BMP180;5953;52.372;9.918;2024-02-26T11:26:55;99794.00;;;11.60
11792;BMP180;5953;52.372;9.918;2024-02-26T11:29:28;99775.00;;;11.60
11792;BMP180;5953;52.372;9.918;2024-02-26T11:31:58;99778.00;;;11.60
11792;BMP180;5953;52.372;9.918;2024-02-26T11:34:27;99769.00;;;11.60
11792;BMP180;5953;52.372;9.918;2024-02-26T11:36:55;99782.00;;;11.60
11792;BMP180;5953;52.372;9.918;2024-02-26T11:39:25;99783.00;;;11.70
11792;BMP180;5953;52.372;9.918;2024-02-26T11:41:53;99777.00;;;11.70
11792;BMP180;5953;52.372;9.918;2024-02-26T11:44:28;99780.00;;;11.80
11792;BMP180;5953;52.372;9.918;2024-02-26T11:46:57;99779.00;;;11.90
11792;BMP180;5953;52.372;9.918;2024-02-26T11:49:31;99785.00;;;12.00
11792;BMP180;5953;52.372;9.918;2024-02-26T11:52:05;99788.00;;;11.90
11792;BMP180;5953;52.372;9.918;2024-02-26T11:54:44;99772.00;;;12.10
11792;BMP180;5953;52.372;9.918;2024-02-26T11:57:23;99785.00;;;12.30
11792;BMP180;5953;52.372;9.918;2024-02-26T11:59:51;99785.00;;;12.20
11792;BMP180;5953;52.372;9.918;2024-02-26T12:02:42;99779.00;;;12.40
11792;BMP180;5953;52.372;9.918;2024-02-26T12:05:13;99793.00;;;12.20
11792;BMP180;5953;52.372;9.918;2024-02-26T12:07:45;99793.00;;;12.30
11792;BMP180;5953;52.372;9.918;2024-02-26T12:10:20;99798.00;;;12.20
11792;BMP180;5953;52.372;9.918;2024-02-26T12:12:49;99805.00;;;12.40
11792;BMP180;5953;52.372;9.918;2024-02-26T12:15:17;99803.00;;;12.50
11792;BMP180;5953;52.372;9.918;2024-02-26T12:17:48;99810.00;;;12.60
11792;BMP180;5953;52.372;9.918;2024-02-26T12:20:17;99811.00;;;12.50
11792;BMP180;5953;52.372;9.918;2024-02-26T12:22:46;99819.00;;;12.60
11792;BMP180;5953;52.372;9.918;2024-02-26T12:25:16;99804.00;;;12.50
11792;BMP180;5953;52.372;9.918;2024-02-26T12:27:44;99821.00;;;12.40
11792;BMP180;5953;52.372;9.918;2024-02-26T12:30:12;99821.00;;;12.60
11792;BMP180;5953;52.372;9.918;2024-02-26T12:32:40;99806.00;;;12.80
11792;BMP180;5953;52.372;9.918;2024-02-26T12:35:08;99821.00;;;12.70
11792;BMP180;5953;52.372;9.918;2024-02-26T12:37:36;99820.00;;;12.90
11792;BMP180;5953;52.372;9.918;2024-02-26T12:40:09;99822.00;;;13.00
11792;BMP180;5953;52.372;9.918;2024-02-26T12:42:39;99812.00;;;12.80
11792;BMP180;5953;52.372;9.918;2024-02-26T12:45:09;99822.00;;;13.20
11792;BMP180;5953;52.372;9.918;2024-02-26T12:47:38;99821.00;;;13.40
11792;BMP180;5953;52.372;9.918;2024-02-26T12:50:08;99820.00;;;13.50
11792;BMP180;5953;52.372;9.918;2024-02-26T12:52:39;99812.00;;;13.70
11792;BMP180;5953;52.372;9.918;2024-02-26T12:55:08;99820.00;;;13.60
11792;BMP180;5953;52.372;9.918;2024-02-26T12:57:38;99813.00;;;13.50
11792;BMP180;5953;52.372;9.918;2024-02-26T13:00:12;99825.00;;;13.70
11792;BMP180;5953;52.372;9.918;2024-02-26T13:02:42;99842.00;;;13.80
11792;BMP180;5953;52.372;9.918;2024-02-26T13:05:13;99827.00;;;13.80
11792;BMP180;5953;52.372;9.918;2024-02-26T13:07:41;99837.00;;;13.70
11792;BMP180;5953;52.372;9.918;2024-02-26T13:10:10;99836.00;;;13.70
11792;BMP180;5953;52.372;9.918;2024-02-26T13:12:43;99841.00;;;13.90
11792;BMP180;5953;52.372;9.918;2024-02-26T13:15:15;99841.00;;;13.90
11792;BMP180;5953;52.372;9.918;2024-02-26T13:17:43;99858.00;;;13.90
11792;BMP180;5953;52.372;9.918;2024-02-26T13:20:12;99859.00;;;13.90
11792;BMP180;5953;52.372;9.918;2024-02-26T13:22:40;99864.00;;;13.80
11792;BMP180;5953;52.372;9.918;2024-02-26T13:25:08;99854.00;;;13.70
11792;BMP180;5953;52.372;9.918;2024-02-26T13:27:36;99855.00;;;13.80
11792;BMP180;5953;52.372;9.918;2024-02-26T13:30:09;99863.00;;;13.80
11792;BMP180;5953;52.372;9.918;2024-02-26T13:32:38;99859.00;;;13.60
11792;BMP180;5953;52.372;9.918;2024-02-26T13:35:08;99856.00;;;13.50
11792;BMP180;5953;52.372;9.918;2024-02-26T13:37:36;99852.00;;;13.60
11792;BMP180;5953;52.372;9.918;2024-02-26T13:40:05;99857.00;;;13.60
11792;BMP180;5953;52.372;9.918;2024-02-26T13:42:33;99856.00;;;13.70
11792;BMP180;5953;52.372;9.918;2024-02-26T13:45:01;99853.00;;;13.90
11792;BMP180;5953;52.372;9.918;2024-02-26T13:47:31;99856.00;;;13.70
11792;BMP180;5953;52.372;9.918;2024-02-26T13:49:59;99854.00;;;14.00
11792;BMP180;5953;52.372;9.918;2024-02-26T13:52:28;99859.00;;;14.00
11792;BMP180;5953;52.372;9.918;2024-02-26T13:54:58;99862.00;;;14.20
11792;BMP180;5953;52.372;9.918;2024-02-26T13:57:27;99869.00;;;14.10
11792;BMP180;5953;52.372;9.918;2024-02-26T13:59:55;99867.00;;;14.00
11792;BMP180;5953;52.372;9.918;2024-02-26T14:02:23;99865.00;;;14.10
11792;BMP180;5953;52.372;9.918;2024-02-26T14:04:52;99859.00;;;14.10
11792;BMP180;5953;52.372;9.918;2024-02-26T14:07:20;99858.00;;;14.10
11792;BMP180;5953;52.372;9.918;2024-02-26T14:09:48;99852.00;;;14.10
11792;BMP180;5953;52.372;9.918;2024-02-26T14:12:16;99865.00;;;14.00
11792;BMP180;5953;52.372;9.918;2024-02-26T14:14:48;99866.00;;;14.10
11792;BMP180;5953;52.372;9.918;2024-02-26T14:17:16;99863.00;;;14.10
11792;BMP180;5953;52.372;9.918;2024-02-26T14:19:44;99872.00;;;14.10
11792;BMP180;5953;52.372;9.918;2024-02-26T14:22:15;99880.00;;;14.10
11792;BMP180;5953;52.372;9.918;2024-02-26T14:24:43;99888.00;;;14.10
11792;BMP180;5953;52.372;9.918;2024-02-26T14:27:13;99896.00;;;14.00
11792;BMP180;5953;52.372;9.918;2024-02-26T14:29:56;99902.00;;;13.80
11792;BMP180;5953;52.372;9.918;2024-02-26T14:32:24;99895.00;;;13.50
11792;BMP180;5953;52.372;9.918;2024-02-26T14:34:52;99903.00;;;13.60
11792;BMP180;5953;52.372;9.918;2024-02-26T14:37:21;99917.00;;;13.50
11792;BMP180;5953;52.372;9.918;2024-02-26T14:39:49;99917.00;;;13.50
11792;BMP180;5953;52.372;9.918;2024-02-26T14:42:18;99916.00;;;13.70